sensor_id;sensor_type;location;lat;lon;timestamp;temperature;humidity
20418;DHT22;10368;51.436;6.774;2023-04-03T10:34:33;8.10;76.00
20418;DHT22;10368;51.436;6.774;2023-04-03T11:02:52;8.50;74.20
20418;DHT22;10368;51.436;6.774;2023-04-03T11:07:57;10.10;68.00
20418;DHT22;10368;51.436;6.774;2023-04-03T11:21:03;11.40;65.10
20418;DHT22;10368;51.436;6.774;2023-04-03T11:23:38;10.70;68.20
20418;DHT22;10368;51.436;6.774;2023-04-03T11:26:21;10.90;66.70
20418;DHT22;10368;51.436;6.774;2023-04-03T11:28:53;10.90;63.60
20418;DHT22;10368;51.436;6.774;2023-04-03T11:39:33;11.30;67.40
20418;DHT22;10368;51.436;6.774;2023-04-03T12:21:20;14.50;60.40
20418;DHT22;10368;51.436;6.774;2023-04-03T12:24:02;12.80;57.40
20418;DHT22;10368;51.436;6.774;2023-04-03T12:29:20;12.60;59.60
20418;DHT22;10368;51.436;6.774;2023-04-03T12:35:26;13.40;78.10
20418;DHT22;10368;51.436;6.774;2023-04-03T12:46:02;13.10;54.40
20418;DHT22;10368;51.436;6.774;2023-04-03T12:48:32;13.20;56.30
20418;DHT22;10368;51.436;6.774;2023-04-03T12:51:03;13.50;55.00
20418;DHT22;10368;51.436;6.774;2023-04-03T12:53:36;13.20;56.70
20418;DHT22;10368;51.436;6.774;2023-04-03T12:56:28;13.70;54.80
20418;DHT22;10368;51.436;6.774;2023-04-03T12:59:24;13.80;54.50
20418;DHT22;10368;51.436;6.774;2023-04-03T13:01:59;13.60;53.80
20418;DHT22;10368;51.436;6.774;2023-04-03T13:04:31;14.40;52.40
20418;DHT22;10368;51.436;6.774;2023-04-03T13:06:58;13.40;53.20
20418;DHT22;10368;51.436;6.774;2023-04-03T13:09:26;13.30;53.70
20418;DHT22;10368;51.436;6.774;2023-04-03T13:12:08;13.70;53.90
20418;DHT22;10368;51.436;6.774;2023-04-03T13:14:38;13.90;54.20
20418;DHT22;10368;51.436;6.774;2023-04-03T13:17:16;14.30;51.30
20418;DHT22;10368;51.436;6.774;2023-04-03T13:19:44;13.90;51.90
20418;DHT22;10368;51.436;6.774;2023-04-03T13:22:41;14.10;52.70
20418;DHT22;10368;51.436;6.774;2023-04-03T13:25:14;14.00;53.20
20418;DHT22;10368;51.436;6.774;2023-04-03T13:27:42;14.00;53.90
20418;DHT22;10368;51.436;6.774;2023-04-03T13:30:31;14.00;52.40
20418;DHT22;10368;51.436;6.774;2023-04-03T13:33:03;13.50;52.60
20418;DHT22;10368;51.436;6.774;2023-04-03T13:35:38;13.70;55.10
20418;DHT22;10368;51.436;6.774;2023-04-03T13:40:56;14.30;51.80
20418;DHT22;10368;51.436;6.774;2023-04-03T13:43:28;13.60;51.90
20418;DHT22;10368;51.436;6.774;2023-04-03T13:48:44;14.40;52.10
20418;DHT22;10368;51.436;6.774;2023-04-03T13:56:33;14.50;50.90
20418;DHT22;10368;51.436;6.774;2023-04-03T13:59:19;14.50;50.00
20418;DHT22;10368;51.436;6.774;2023-04-03T14:04:28;14.40;51.00
20418;DHT22;10368;51.436;6.774;2023-04-03T14:06:56;14.20;50.10
20418;DHT22;10368;51.436;6.774;2023-04-03T14:09:25;14.40;49.80
20418;DHT22;10368;51.436;6.774;2023-04-03T14:12:00;14.30;52.10
20418;DHT22;10368;51.436;6.774;2023-04-03T14:14:34;13.60;51.50
20418;DHT22;10368;51.436;6.774;2023-04-03T14:17:03;14.10;50.90
20418;DHT22;10368;51.436;6.774;2023-04-03T14:19:52;14.10;51.30
20418;DHT22;10368;51.436;6.774;2023-04-03T14:22:25;13.40;50.70
20418;DHT22;10368;51.436;6.774;2023-04-03T14:24:53;13.40;52.00
20418;DHT22;10368;51.436;6.774;2023-04-03T14:29:48;14.00;53.70
20418;DHT22;10368;51.436;6.774;2023-04-03T14:32:17;14.20;52.50
20418;DHT22;10368;51.436;6.774;2023-04-03T14:34:44;14.10;51.80
20418;DHT22;10368;51.436;6.774;2023-04-03T14:37:15;14.40;50.20
20418;DHT22;10368;51.436;6.774;2023-04-03T14:39:43;13.80;52.00
20418;DHT22;10368;51.436;6.774;2023-04-03T14:42:20;14.00;51.90
20418;DHT22;10368;51.436;6.774;2023-04-03T14:44:48;13.80;52.60
20418;DHT22;10368;51.436;6.774;2023-04-03T14:47:24;14.10;53.70
20418;DHT22;10368;51.436;6.774;2023-04-03T14:50:00;13.80;52.60
20418;DHT22;10368;51.436;6.774;2023-04-03T14:52:33;13.80;52.50
20418;DHT22;10368;51.436;6.774;2023-04-03T14:55:00;13.40;51.60
20418;DHT22;10368;51.436;6.774;2023-04-03T14:57:29;13.90;52.80
20418;DHT22;10368;51.436;6.774;2023-04-03T14:59:57;13.50;52.30
20418;DHT22;10368;51.436;6.774;2023-04-03T15:02:36;13.30;52.60
20418;DHT22;10368;51.436;6.774;2023-04-03T15:05:08;14.00;51.90
20418;DHT22;10368;51.436;6.774;2023-04-03T15:07:38;13.90;52.20
20418;DHT22;10368;51.436;6.774;2023-04-03T15:10:27;14.60;51.80
20418;DHT22;10368;51.436;6.774;2023-04-03T15:12:55;13.90;52.60
20418;DHT22;10368;51.436;6.774;2023-04-03T15:15:23;13.70;52.60
20418;DHT22;10368;51.436;6.774;2023-04-03T15:17:53;13.50;53.50
20418;DHT22;10368;51.436;6.774;2023-04-03T15:20:23;13.40;54.00
20418;DHT22;10368;51.436;6.774;2023-04-03T15:22:50;13.30;59.30
20418;DHT22;10368;51.436;6.774;2023-04-03T15:25:17;13.80;53.70
20418;DHT22;10368;51.436;6.774;2023-04-03T15:27:44;13.40;53.00
20418;DHT22;10368;51.436;6.774;2023-04-03T15:30:14;13.10;53.40
20418;DHT22;10368;51.436;6.774;2023-04-03T15:32:42;13.20;53.10
20418;DHT22;10368;51.436;6.774;2023-04-03T15:35:10;13.20;54.20
20418;DHT22;10368;51.436;6.774;2023-04-03T15:37:37;13.10;54.30
20418;DHT22;10368;51.436;6.774;2023-04-03T15:40:05;13.30;52.20
20418;DHT22;10368;51.436;6.774;2023-04-03T15:42:32;13.00;53.10
20418;DHT22;10368;51.436;6.774;2023-04-03T15:44:59;12.90;53.80
20418;DHT22;10368;51.436;6.774;2023-04-03T15:47:27;13.10;53.30
20418;DHT22;10368;51.436;6.774;2023-04-03T15:49:54;13.10;53.80
20418;DHT22;10368;51.436;6.774;2023-04-03T15:52:22;13.10;55.20
20418;DHT22;10368;51.436;6.774;2023-04-03T15:54:49;13.10;54.10
20418;DHT22;10368;51.436;6.774;2023-04-03T15:57:16;12.60;53.60
20418;DHT22;10368;51.436;6.774;2023-04-03T15:59:43;13.00;54.60
20418;DHT22;10368;51.436;6.774;2023-04-03T16:02:11;12.90;54.10
20418;DHT22;10368;51.436;6.774;2023-04-03T16:04:40;12.80;55.10
20418;DHT22;10368;51.436;6.774;2023-04-03T16:07:07;12.50;55.20
20418;DHT22;10368;51.436;6.774;2023-04-03T16:09:34;12.50;55.80
20418;DHT22;10368;51.436;6.774;2023-04-03T17:53:08;12.70;56.20
20418;DHT22;10368;51.436;6.774;2023-04-03T17:55:39;8.80;63.30
20418;DHT22;10368;51.436;6.774;2023-04-03T17:58:06;8.90;62.90
20418;DHT22;10368;51.436;6.774;2023-04-03T18:00:33;8.80;64.20
20418;DHT22;10368;51.436;6.774;2023-04-03T18:03:00;8.70;63.70
20418;DHT22;10368;51.436;6.774;2023-04-03T18:05:28;8.80;64.20
20418;DHT22;10368;51.436;6.774;2023-04-03T18:20:16;8.60;64.10
